Saint Marks, Florida
Current Conditions -  °F | °C
As of 8:53 PM on Wednesday 22 Oct 2014 (Local Time) from KTLH Reporting Station
Clear Clear  
Wind Chill: 19°   Ceiling: Unl
Heat Index: 19°   Visibility: 10mi
Dew Point:   Wind: 6mph
Humidity: 45%   Direction: 30°NNE
Pressure: 30.03"   Gusts: NA
Location:  30.16°N, 84.21°W
Report Text: KTLH 230053Z 03005KT 10SM CLR 19/07 A3003 RMK AO2 SLP168 T01940072 $
Loading
Personal Weather Stations






























Interactive Weather Map
Tropical Storm Tracking
New forecast layout! Learn more

10-Day Weather Forecast

Advertisements
Track Severe Weather on mobile